createdAt,value
2022-11-14T00:00:29.250Z,66.48
2022-11-14T00:03:16.698Z,66.43
2022-11-14T00:06:08.234Z,66.42
2022-11-14T00:08:55.071Z,66.50
2022-11-14T00:11:42.371Z,66.52
2022-11-14T00:14:29.425Z,66.49
2022-11-14T00:17:17.007Z,66.41
2022-11-14T00:20:06.298Z,66.41
2022-11-14T00:22:53.308Z,66.36
2022-11-14T00:25:40.263Z,66.45
2022-11-14T00:28:27.621Z,66.38
2022-11-14T00:31:14.921Z,66.40
2022-11-14T00:34:01.869Z,66.29
2022-11-14T00:36:48.710Z,66.29
2022-11-14T00:39:35.563Z,66.29
2022-11-14T00:42:22.662Z,66.26
2022-11-14T00:45:10.052Z,66.32
2022-11-14T00:47:57.337Z,66.42
2022-11-14T00:50:44.526Z,66.29
2022-11-14T00:53:31.618Z,66.26
2022-11-14T00:56:18.885Z,66.19
2022-11-14T00:59:06.159Z,66.21
2022-11-14T01:01:57.717Z,66.25
2022-11-14T01:04:45.551Z,66.21
2022-11-14T01:07:32.520Z,66.28
2022-11-14T01:10:19.641Z,66.31
2022-11-14T01:13:06.477Z,66.27
2022-11-14T01:15:55.014Z,66.24
2022-11-14T01:18:41.997Z,66.30
2022-11-14T01:21:28.825Z,66.24
2022-11-14T01:24:15.939Z,66.24
2022-11-14T01:27:03.230Z,66.25
2022-11-14T01:29:50.909Z,66.16
2022-11-14T01:32:38.311Z,66.15
2022-11-14T01:35:25.354Z,66.16
2022-11-14T01:38:14.888Z,66.08
2022-11-14T01:41:02.303Z,66.05
2022-11-14T01:43:50.036Z,65.95
2022-11-14T01:46:40.936Z,65.97
2022-11-14T01:49:43.900Z,65.98
2022-11-14T01:52:40.723Z,65.97
2022-11-14T01:55:27.463Z,65.93
2022-11-14T01:58:16.690Z,65.90
2022-11-14T02:01:03.780Z,65.87
2022-11-14T02:03:53.185Z,65.81
2022-11-14T02:06:40.744Z,65.86
2022-11-14T02:09:31.374Z,65.79
2022-11-14T02:12:19.731Z,65.77
2022-11-14T02:15:07.162Z,65.69
2022-11-14T02:17:54.268Z,65.67
2022-11-14T02:20:43.486Z,65.78
2022-11-14T02:23:32.755Z,65.66
2022-11-14T02:26:21.560Z,65.74
2022-11-14T02:29:11.501Z,65.69
2022-11-14T02:31:58.549Z,65.66
2022-11-14T02:34:45.214Z,65.69
2022-11-14T02:37:32.067Z,65.71
2022-11-14T02:40:18.970Z,65.67
2022-11-14T02:43:06.097Z,65.70
2022-11-14T02:45:53.270Z,65.60
2022-11-14T02:48:40.141Z,65.67
2022-11-14T02:51:26.964Z,65.54
2022-11-14T02:54:13.714Z,65.54
2022-11-14T02:57:00.897Z,65.55
2022-11-14T02:59:47.588Z,65.51
2022-11-14T03:02:34.955Z,65.47
2022-11-14T03:05:22.119Z,65.51
2022-11-14T03:08:08.771Z,65.53
2022-11-14T03:10:55.484Z,65.48
2022-11-14T03:13:42.563Z,65.56
2022-11-14T03:16:29.342Z,65.53
2022-11-14T03:19:16.200Z,65.65
2022-11-14T03:22:03.647Z,65.52
2022-11-14T03:24:50.494Z,65.46
2022-11-14T03:27:37.632Z,65.45
2022-11-14T03:30:24.709Z,65.44
2022-11-14T03:33:11.816Z,65.32
2022-11-14T03:35:58.865Z,65.48
2022-11-14T03:38:45.693Z,65.47
2022-11-14T03:41:32.701Z,65.45
2022-11-14T03:44:19.577Z,65.41
2022-11-14T03:47:06.803Z,65.37
2022-11-14T03:49:53.879Z,65.33
2022-11-14T03:52:41.243Z,65.41
2022-11-14T03:55:28.323Z,65.38
2022-11-14T03:58:15.216Z,65.34
2022-11-14T04:01:03.991Z,65.37
2022-11-14T04:03:51.293Z,65.33
2022-11-14T04:06:38.768Z,65.34
2022-11-14T04:09:25.873Z,65.26
2022-11-14T04:12:15.909Z,65.33
2022-11-14T04:15:03.310Z,65.35
2022-11-14T04:17:51.416Z,65.36
2022-11-14T04:20:38.472Z,65.31
2022-11-14T04:23:25.695Z,65.25
2022-11-14T04:26:12.774Z,65.28
2022-11-14T04:29:00.007Z,65.14
2022-11-14T04:31:46.700Z,65.07
2022-11-14T04:34:34.283Z,65.10
2022-11-14T04:37:20.820Z,65.27
2022-11-14T04:40:09.023Z,65.24
2022-11-14T04:42:56.132Z,65.29
2022-11-14T04:45:43.505Z,65.31
2022-11-14T04:48:30.908Z,65.27
2022-11-14T04:51:19.007Z,65.10
2022-11-14T04:54:05.973Z,65.17
2022-11-14T04:56:53.349Z,65.21
2022-11-14T04:59:40.054Z,65.13
2022-11-14T05:02:27.309Z,65.01
2022-11-14T05:05:14.111Z,65.03
2022-11-14T05:08:01.536Z,65.21
2022-11-14T05:10:48.774Z,65.09
2022-11-14T05:13:35.823Z,65.01
2022-11-14T05:16:22.727Z,65.06
